Latest Weather Observations for kunanyi / Mount Wellington

IDT60901

Issued at 3:11 am EST Saturday 24 June 2017 (issued every 10 minutes, with the page automatically refreshed every 10 minutes)

About weather observations | Map of Hobart area stations | Latest observations for Hobart area | Other Formats
Station Details ID: 094087 Name: KUNANYI (MOUNT WELLINGTON PINNACLE) Lat: -42.90 Lon: 147.24 Height: 1260.47 m
Data from the previous 72 hours. | See also: Recent months at kunanyi / Mount Wellington
Date/Time
EST
Temp
°C
App
Temp
°C
Dew
Point
°C
Rel
Hum
%
Delta-T
°C
Wind Press
QNH
hPa
Press
MSL
hPa
Rain since
9am
mm
Dir  Spd
km/h
Gust
km/h
Spd
kts
Gust
kts
24/03:00am -4.8 -14.1 -5.8 93 0.1 WSW 35 48 19 26 - - 1.6
24/02:30am -5.4 -14.2 -6.3 93 0.1 WSW 32 39 17 21 - - 1.6
24/02:00am -5.3 -14.7 -6.2 93 0.1 WSW 35 43 19 23 - - 1.6
24/01:30am -5.2 -15.3 -6.2 93 0.1 WSW 39 48 21 26 - - 1.6
24/01:00am -4.8 -14.5 -5.8 93 0.1 WSW 37 46 20 25 - - 1.6
24/12:30am -4.7 -14.0 -5.5 94 0.1 WSW 35 46 19 25 - - 1.6
24/12:00am -4.6 -15.0 -5.4 94 0.1 WSW 41 52 22 28 - - 1.6
 
Date/Time
EST
Temp
°C
App
Temp
°C
Dew
Point
°C
Rel
Hum
%
Delta-T
°C
Wind Press
QNH
hPa
Press
MSL
hPa
Rain since
9am
mm
Dir  Spd
km/h
Gust
km/h
Spd
kts
Gust
kts
23/11:36pm -4.3 -13.2 -5.1 94 0.1 WSW 33 54 18 29 - - 1.6
23/11:30pm -4.2 -13.8 -5.0 94 0.1 WSW 37 50 20 27 - - 1.6
23/11:00pm -4.2 -15.5 -5.0 94 0.1 WSW 46 56 25 30 - - 1.6
23/10:30pm -3.9 -17.1 -4.7 94 0.1 WSW 56 70 30 38 - - 1.6
23/10:00pm -3.8 -17.0 -4.5 95 0.1 WSW 56 72 30 39 - - 1.6
23/09:55pm -3.8 -16.2 -4.5 95 0.1 WSW 52 72 28 39 - - 1.6
23/09:30pm -3.6 -14.9 -4.3 95 0.1 WSW 46 56 25 30 - - 1.6
23/09:00pm -3.6 -16.0 -4.3 95 0.1 WSW 52 61 28 33 - - 1.6
23/08:45pm -3.6 -16.4 -4.3 95 0.1 WSW 54 72 29 39 - - 1.6
23/08:30pm -3.7 -18.2 -4.5 94 0.1 WSW 63 76 34 41 - - 1.6
23/08:00pm -3.7 -16.5 -4.4 95 0.1 WSW 54 69 29 37 - - 1.6
23/07:44pm -3.6 -16.4 -4.4 94 0.1 WSW 54 74 29 40 - - 1.6
23/07:30pm -3.7 -17.5 -4.8 92 0.2 WSW 59 69 32 37 - - 1.6
23/07:10pm -3.5 -18.0 -4.3 94 0.1 WSW 63 83 34 45 - - 1.6
23/07:00pm -3.4 -18.3 -4.2 94 0.1 WSW 65 82 35 44 - - 1.6
23/06:35pm -3.1 -17.1 -3.6 96 0.0 WSW 61 82 33 44 - - 1.6
23/06:30pm -3.1 -17.5 -3.6 96 0.0 WSW 63 80 34 43 - - 1.6
23/06:00pm -2.4 -16.7 -2.8 97 0.0 WSW 63 80 34 43 - - 1.6
23/05:30pm -1.7 -17.1 -2.1 97 0.1 WSW 69 82 37 44 - - 1.6
23/05:24pm -1.3 -15.5 -1.7 97 0.1 WSW 63 82 34 44 - - 1.6
23/05:00pm -0.5 -12.9 -0.8 98 0.1 WSW 54 65 29 35 - - 1.6
23/04:30pm 0.7 -9.6 0.4 98 0.1 WSW 44 63 24 34 - - 1.4
23/04:00pm 1.0 -11.5 0.6 97 0.2 W 56 76 30 41 - - 1.0
23/03:36pm 0.6 -12.6 0.2 97 0.2 WNW 59 93 32 50 - - 1.0
23/03:33pm 0.7 -13.6 0.3 97 0.2 WNW 65 93 35 50 - - 1.0
23/03:30pm 0.8 -14.8 0.4 97 0.2 WNW 72 96 39 52 - - 1.0
23/03:03pm 1.1 -13.5 0.8 98 0.1 W 67 91 36 49 - - 1.0
23/03:00pm 1.2 -13.4 0.9 98 0.1 W 67 83 36 45 - - 1.0
23/02:44pm 1.2 -15.5 0.9 98 0.1 W 78 124 42 67 - - 1.0
23/02:42pm 1.2 -16.2 0.9 98 0.1 W 82 124 44 67 - - 1.0
23/02:33pm 1.1 -14.4 0.8 98 0.1 W 72 117 39 63 - - 1.0
23/02:32pm 1.1 -13.9 0.8 98 0.1 W 69 117 37 63 - - 1.0
23/02:30pm 1.1 -12.7 0.8 98 0.1 W 63 98 34 53 - - 1.0
23/02:27pm 1.6 -11.0 1.3 98 0.1 W 57 85 31 46 - - 0.8
23/02:26pm 1.7 -10.7 1.4 98 0.1 W 56 76 30 41 - - 0.8
23/02:00pm 2.4 -10.8 2.1 98 0.1 WNW 61 85 33 46 - - 0.2
23/01:30pm 2.4 -9.9 2.1 98 0.1 NW 56 78 30 42 - - 0.2
23/01:00pm 2.3 -10.2 2.0 98 0.1 NW 57 78 31 42 - - 0.2
23/12:38pm 2.3 -9.3 2.0 98 0.1 NW 52 72 28 39 - - 0.2
23/12:30pm 2.3 -9.6 2.0 98 0.1 NW 54 72 29 39 - - 0.2
23/12:05pm 2.3 -10.0 2.0 98 0.1 NW 56 74 30 40 - - 0.2
23/12:00pm 2.3 -10.2 2.0 98 0.1 NW 57 76 31 41 - - 0.2
23/11:30am 2.2 -9.7 1.9 98 0.1 NW 54 76 29 41 - - 0.0
23/11:02am 2.1 -10.4 1.8 98 0.1 NW 57 76 31 41 - - 0.0
23/11:00am 2.0 -10.9 1.7 98 0.1 NW 59 76 32 41 - - 0.0
23/10:42am 1.9 -11.4 1.6 98 0.1 NW 61 82 33 44 - - 0.0
23/10:30am 2.0 -11.3 1.7 98 0.1 NW 61 76 33 41 - - 0.0
23/10:00am 1.9 -11.8 1.6 98 0.1 NW 63 80 34 43 - - 0.0
23/09:55am 1.9 -11.4 1.6 98 0.1 NW 61 80 33 43 - - 0.0
23/09:30am 1.8 -11.5 1.5 98 0.1 WNW 61 76 33 41 - - 0.0
23/09:00am 1.4 -12.8 1.1 98 0.1 WNW 65 87 35 47 - - 0.6
23/08:51am 1.4 -12.4 1.1 98 0.1 WNW 63 87 34 47 - - 0.6
23/08:30am 1.3 -11.4 1.0 98 0.1 NW 57 70 31 38 - - 0.6
23/08:00am 1.6 -9.7 1.3 98 0.1 NW 50 67 27 36 - - 0.4
23/07:30am 1.7 -9.2 1.4 98 0.1 NW 48 72 26 39 - - 0.4
23/07:20am 1.7 -10.9 1.4 98 0.1 WNW 57 76 31 41 - - 0.4
23/07:00am 1.7 -10.7 1.4 98 0.1 WNW 56 69 30 37 - - 0.4
23/06:47am 1.7 -9.6 1.4 98 0.1 WNW 50 70 27 38 - - 0.4
23/06:30am 1.5 -9.0 1.2 98 0.1 W 46 59 25 32 - - 0.4
23/06:00am 2.0 -10.5 1.7 98 0.1 WNW 57 72 31 39 - - 0.4
23/05:30am 1.6 -11.0 1.2 97 0.2 WNW 57 76 31 41 - - 0.2
23/05:14am 1.8 -11.2 1.4 97 0.2 WNW 59 83 32 45 - - 0.2
23/05:00am 1.8 -12.0 1.2 96 0.2 WNW 63 78 34 42 - - 0.2
23/04:30am 0.9 -12.2 0.3 96 0.2 WNW 59 78 32 42 - - 0.2
23/04:19am 0.8 -12.7 0.4 97 0.2 WNW 61 80 33 43 - - 0.2
23/04:00am 0.8 -12.0 -0.1 94 0.4 WNW 57 72 31 39 - - 0.2
23/03:30am 0.7 -11.2 0.0 95 0.3 WNW 52 70 28 38 - - 0.2
23/03:00am 0.6 -10.9 0.2 97 0.2 WNW 50 63 27 34 - - 0.2
23/02:30am 1.0 -10.1 -0.3 91 0.5 W 48 63 26 34 - - 0.2
23/02:00am 1.0 -11.7 -0.6 89 0.6 W 56 67 30 36 - - 0.2
23/01:30am 1.1 -12.0 0.4 95 0.3 W 59 80 32 43 - - 0.2
23/01:04am 1.3 -11.4 0.9 97 0.2 W 57 78 31 42 - - 0.2
23/01:00am 1.3 -11.2 0.9 97 0.2 W 56 74 30 40 - - 0.2
23/12:38am 1.3 -10.8 0.7 96 0.2 W 54 74 29 40 - - 0.2
23/12:30am 1.4 -11.1 0.7 95 0.3 W 56 72 30 39 - - 0.2
23/12:00am 1.2 -12.3 0.3 94 0.4 W 61 80 33 43 - - 0.2
 
Date/Time
EST
Temp
°C
App
Temp
°C
Dew
Point
°C
Rel
Hum
%
Delta-T
°C
Wind Press
QNH
hPa
Press
MSL
hPa
Rain since
9am
mm
Dir  Spd
km/h
Gust
km/h
Spd
kts
Gust
kts
22/11:30pm 1.0 -13.0 -0.1 92 0.4 W 63 89 34 48 - - 0.2
22/11:03pm 0.4 -12.8 0.0 97 0.2 W 59 78 32 42 - - 0.2
22/11:00pm 0.4 -13.2 0.0 97 0.2 W 61 78 33 42 - - 0.2
22/10:30pm 0.0 -13.3 -0.4 97 0.2 W 59 76 32 41 - - 0.2
22/10:00pm -0.1 -12.8 -0.7 96 0.2 WNW 56 74 30 40 - - 0.2
22/09:55pm -0.1 -12.8 -0.7 96 0.2 WNW 56 74 30 40 - - 0.2
22/09:30pm -0.4 -12.4 -1.0 96 0.2 WNW 52 70 28 38 - - 0.2
22/09:00pm -0.1 -11.7 -1.1 93 0.4 W 50 63 27 34 - - 0.2
22/08:30pm -0.5 -11.4 -1.6 92 0.4 W 46 70 25 38 - - 0.2
22/08:03pm -0.6 -10.9 -1.4 94 0.3 W 43 74 23 40 - - 0.2
22/08:00pm -0.6 -10.9 -1.4 94 0.3 W 43 57 23 31 - - 0.2
22/07:30pm -0.5 -11.1 -1.6 92 0.4 W 44 63 24 34 - - 0.2
22/07:03pm -0.8 -11.1 -1.2 97 0.1 W 43 61 23 33 - - 0.2
22/07:00pm -0.9 -11.2 -1.3 97 0.1 W 43 57 23 31 - - 0.2
22/06:56pm -1.0 -11.0 -1.4 97 0.1 W 41 59 22 32 - - 0.2
22/06:45pm -1.1 -12.0 -1.5 97 0.1 WNW 46 61 25 33 - - 0.2
22/06:30pm -1.2 -12.9 -1.6 97 0.1 WNW 50 59 27 32 - - 0.2
22/06:00pm -1.1 -12.4 -1.7 96 0.2 WNW 48 57 26 31 - - 0.2
22/05:30pm -1.2 -11.2 -1.8 96 0.2 W 41 52 22 28 - - 0.0
22/05:00pm -1.4 -11.9 -2.2 94 0.2 W 43 52 23 28 - - 0.0
22/04:30pm -0.9 -12.4 -2.6 88 0.6 W 48 63 26 34 - - 0.0
22/04:00pm -1.0 -11.7 -2.4 90 0.5 W 44 56 24 30 - - 0.0
22/03:30pm -0.5 -9.9 -2.5 86 0.7 WNW 37 50 20 27 - - 0.0
22/03:00pm -0.6 -10.0 -2.6 86 0.7 W 37 50 20 27 - - 0.0
22/02:30pm 0.4 -8.6 -2.8 79 1.2 W 35 52 19 28 - - 0.0
22/02:00pm -0.3 -9.0 -3.2 81 1.0 W 33 46 18 25 - - 0.0
22/01:30pm 0.4 -9.3 -2.6 80 1.1 W 39 52 21 28 - - 0.0
22/01:00pm 0.3 -8.7 -2.9 79 1.2 W 35 46 19 25 - - 0.0
22/12:30pm -0.1 -8.8 -3.3 79 1.2 W 33 41 18 22 - - 0.0
22/12:00pm -0.1 -7.0 -3.0 81 1.1 WNW 24 33 13 18 - - 0.0
22/11:30am -0.5 -6.5 -3.0 83 0.9 WNW 19 26 10 14 - - 0.0
22/11:00am -0.9 -8.4 -4.1 79 1.1 WNW 26 33 14 18 - - 0.0
22/10:30am -1.4 -9.9 -3.7 84 0.7 NW 32 43 17 23 - - 0.0
22/10:00am -1.5 -10.2 -3.2 88 0.5 NW 33 44 18 24 - - 0.0
22/09:30am -1.8 -10.9 -3.4 89 0.5 NW 35 46 19 25 - - 0.0
22/09:00am -2.4 -11.1 -3.7 91 0.3 WNW 33 43 18 23 - - 0.0
22/08:30am -2.6 -11.4 -3.9 91 0.3 NW 33 44 18 24 - - 0.0
22/08:00am -2.8 -11.4 -4.4 89 0.4 WNW 32 39 17 21 - - 0.0
22/07:30am -2.9 -10.4 -4.6 88 0.4 NW 26 37 14 20 - - 0.0
22/07:00am -2.9 -10.4 -4.8 87 0.5 NW 26 35 14 19 - - 0.0
22/06:30am -2.8 -9.6 -4.7 87 0.5 NW 22 32 12 17 - - 0.0
22/06:00am -3.1 -10.2 -4.6 89 0.4 WNW 24 32 13 17 - - 0.0
22/05:30am -3.2 -9.9 -4.6 90 0.3 WNW 22 32 12 17 - - 0.0
22/05:00am -2.7 -11.3 -4.1 90 0.4 NW 32 43 17 23 - - 0.0
22/04:30am -2.5 -11.6 -3.9 90 0.4 NNW 35 43 19 23 - - 0.0
22/04:00am -2.3 -11.4 -3.9 89 0.5 NW 35 44 19 24 - - 0.0
22/03:30am -2.4 -11.2 -4.0 89 0.4 NNW 33 41 18 22 - - 0.0
22/03:00am -2.4 -10.6 -4.4 86 0.6 NNW 30 37 16 20 - - 0.0
22/02:30am -2.6 -9.3 -4.6 86 0.6 NNW 22 26 12 14 - - 0.0
22/02:00am -2.3 -9.1 -5.1 81 0.8 NNW 22 28 12 15 - - 0.0
22/01:30am -2.2 -8.7 -5.5 78 1.0 N 20 26 11 14 - - 0.0
22/01:00am -2.6 -7.3 -5.4 81 0.8 NNW 11 20 6 11 - - 0.0
22/12:30am -2.9 -7.6 -5.2 84 0.6 NNW 11 15 6 8 - - 0.0
22/12:00am -3.5 -8.3 -5.6 85 0.5 NW 11 13 6 7 - - 0.0
 
Date/Time
EST
Temp
°C
App
Temp
°C
Dew
Point
°C
Rel
Hum
%
Delta-T
°C
Wind Press
QNH
hPa
Press
MSL
hPa
Rain since
9am
mm
Dir  Spd
km/h
Gust
km/h
Spd
kts
Gust
kts
21/11:30pm -2.9 -6.9 -5.7 81 0.8 NNW 7 9 4 5 - - 0.0
21/11:00pm -2.9 -6.3 -4.9 86 0.5 WNW 4 4 2 2 - - 0.0
21/10:30pm -2.7 -5.3 -5.2 83 0.7 CALM 0 0 0 0 - - 0.0
21/10:00pm -2.4 -6.2 -5.2 81 0.8 NW 6 6 3 3 - - 0.0
21/09:30pm -3.5 -7.9 -5.8 84 0.6 WSW 9 11 5 6 - - 0.0
21/09:00pm -3.2 -7.1 -5.0 87 0.5 WNW 7 11 4 6 - - 0.0
21/08:30pm -2.9 -7.2 -4.6 88 0.4 WSW 9 13 5 7 - - 0.0
21/08:00pm -3.0 -8.0 -4.1 92 0.2 WSW 13 20 7 11 - - 0.0
21/07:30pm -3.0 -8.3 -3.7 95 0.1 WSW 15 17 8 9 - - 0.0
21/07:00pm -2.6 -8.2 -3.1 96 0.1 SW 17 20 9 11 - - 0.0
21/06:30pm -2.4 -9.7 -2.9 96 0.1 WSW 26 30 14 16 - - 0.0
21/06:00pm -2.3 -6.7 -2.8 96 0.1 W 11 15 6 8 - - 0.0
21/05:30pm -2.3 -8.9 -3.1 94 0.2 WSW 22 26 12 14 - - 0.0
21/05:00pm -2.0 -7.6 -2.7 95 0.2 WSW 17 22 9 12 - - 0.0
21/04:30pm -1.7 -5.7 -2.5 94 0.2 WSW 9 13 5 7 - - 0.0
21/04:00pm -1.5 -6.7 -2.9 90 0.4 W 15 19 8 10 - - 0.0
21/03:30pm -1.2 -7.2 -2.9 88 0.6 WSW 19 26 10 14 - - 0.0
21/03:00pm -0.6 -5.8 -2.5 87 0.7 W 15 22 8 12 - - 0.0
21/02:30pm -1.3 -7.4 -2.3 93 0.3 WSW 20 28 11 15 - - 0.0
21/02:00pm -1.1 -6.2 -2.2 92 0.4 W 15 24 8 13 - - 0.0
21/01:30pm -1.2 -8.2 -3.2 86 0.7 WSW 24 33 13 18 - - 0.0
21/01:00pm -0.2 -5.0 -2.6 84 0.9 WSW 13 26 7 14 - - 0.0
21/12:30pm -0.8 -8.4 -2.4 89 0.5 WSW 28 41 15 22 - - 0.0
21/12:00pm -0.9 -7.8 -2.8 87 0.6 W 24 37 13 20 - - 0.0
21/11:30am -1.5 -9.6 -3.1 89 0.5 WSW 30 43 16 23 - - 0.0
21/11:00am -2.0 -10.1 -3.1 92 0.3 WSW 30 39 16 21 - - 0.0
21/10:30am -2.3 -10.0 -3.0 95 0.1 SW 28 37 15 20 - - 0.0
21/10:00am -2.2 -8.4 -3.5 91 0.4 WSW 20 32 11 17 - - 0.0
21/09:30am -2.6 -9.6 -3.9 91 0.3 WSW 24 41 13 22 - - 0.0
21/09:00am -2.5 -9.4 -3.0 96 0.1 W 24 37 13 20 - - 3.6
21/08:30am -2.4 -11.0 -2.9 96 0.1 SW 33 48 18 26 - - 3.6
21/08:00am -2.4 -11.4 -3.1 95 0.1 SW 35 50 19 27 - - 3.6
21/07:30am -2.5 -10.2 -3.3 94 0.2 SSW 28 43 15 23 - - 3.6
21/07:03am -2.6 -11.7 -4.0 90 0.4 SSW 35 54 19 29 - - 3.6
21/07:00am -2.8 -12.4 -4.4 89 0.4 SW 37 54 20 29 - - 3.6
21/06:34am -2.5 -12.3 -3.3 94 0.2 SW 39 63 21 34 - - 3.6
21/06:30am -2.5 -12.7 -3.3 94 0.2 SW 41 57 22 31 - - 3.6
21/06:00am -2.4 -14.7 -3.2 94 0.2 WSW 52 63 28 34 - - 3.6
21/05:44am -2.7 -14.0 -4.1 90 0.4 WSW 46 65 25 35 - - 3.6
21/05:30am -2.6 -13.5 -4.3 88 0.5 WSW 44 57 24 31 - - 3.6
21/05:00am -2.3 -13.1 -3.4 92 0.3 SW 44 65 24 35 - - 3.6
21/04:39am -2.3 -11.8 -3.4 92 0.3 SW 37 56 20 30 - - 3.6
21/04:30am -2.4 -13.0 -3.5 92 0.3 SW 43 59 23 32 - - 3.6
21/04:23am -2.5 -14.8 -3.5 93 0.2 SW 52 70 28 38 - - 3.6
21/04:00am -2.3 -13.8 -3.1 94 0.2 SW 48 65 26 35 - - 3.6
21/03:30am -1.9 -12.1 -3.3 90 0.4 SW 41 57 22 31 - - 3.6
21/03:20am -1.9 -12.7 -3.8 87 0.6 SW 44 63 24 34 - - 3.6

Latest Capital City Observations: Canberra | Sydney | Melbourne | Brisbane | Adelaide | Perth | Hobart | Darwin

Other Formats:

Comma delimited format used in spreadsheet applications
http://www.bom.gov.au/fwo/IDT60901/IDT60901.95979.axf

JavaScript Object Notation format (JSON) in row-major order
http://www.bom.gov.au/fwo/IDT60901/IDT60901.95979.json